Time;durP1;ratioP1;P1;durP2;ratioP2;P2;SDS_P1;SDS_P2;PMS_P1;PMS_P2;Temp;Humidity;BMP_temperature;BMP_pressure;BME280_temperature;BME280_humidity;BME280_pressure;Samples;Min_cycle;Max_cycle;Signal;HPM_P1;HPM_P2
2022/03/23 14:31:05;;;;;;;15.30;10.82;;;19.00;38.00;;;;;;4907395;29;20044;-71
2022/03/23 14:33:38;;;;;;;12.77;9.82;;;19.20;39.20;;;;;;4915641;29;20052;-72
2022/03/23 14:36:22;;;;;;;12.50;11.27;;;19.50;38.20;;;;;;4916495;29;20051;-71
2022/03/23 14:38:54;;;;;;;13.30;10.45;;;19.70;38.20;;;;;;4916262;29;20043;-71
2022/03/23 14:41:30;;;;;;;10.85;9.75;;;19.90;37.90;;;;;;4913536;29;20075;-71
2022/03/23 14:44:02;;;;;;;12.38;10.43;;;20.10;37.40;;;;;;4884984;29;20534;-72
2022/03/23 14:46:34;;;;;;;13.35;10.70;;;20.30;36.70;;;;;;4916111;29;20072;-71
2022/03/23 14:49:09;;;;;;;13.43;11.05;;;20.30;36.40;;;;;;4898420;29;20048;-71
2022/03/23 14:51:43;;;;;;;11.63;10.40;;;20.40;36.30;;;;;;4912608;29;20130;-70
2022/03/23 14:54:16;;;;;;;12.35;10.25;;;20.50;36.40;;;;;;4884246;29;20051;-70
2022/03/23 14:56:49;;;;;;;13.20;10.55;;;20.70;36.60;;;;;;4900040;29;20041;-71
2022/03/23 14:59:21;;;;;;;13.15;10.20;;;21.00;36.90;;;;;;4915692;29;20052;-71
2022/03/23 15:01:58;;;;;;;12.43;10.25;;;21.30;36.50;;;;;;4916205;29;20047;-71
2022/03/23 15:04:30;;;;;;;13.77;10.80;;;21.70;36.00;;;;;;4884199;29;20518;-71
2022/03/23 15:13:15;;;;;;;12.25;10.98;;;22.30;35.40;;;;;;4915835;29;20079;-71
2022/03/23 15:13:16;;;;;;;13.02;11.73;;;22.60;33.70;;;;;;4915744;29;20586;-71
2022/03/23 15:15:47;;;;;;;12.70;10.65;;;22.60;33.30;;;;;;4915903;29;20048;-71
2022/03/23 15:18:19;;;;;;;14.27;11.70;;;22.60;32.70;;;;;;4915785;29;20044;-71
2022/03/23 15:20:51;;;;;;;19.75;13.18;;;22.60;33.90;;;;;;4915695;29;20048;-72
2022/03/23 15:23:23;;;;;;;13.35;11.27;;;22.70;33.10;;;;;;4914301;29;20052;-71
2022/03/23 15:25:55;;;;;;;11.95;10.50;;;22.70;32.60;;;;;;4899771;29;20056;-71
2022/03/23 15:28:26;;;;;;;13.07;11.65;;;22.90;32.50;;;;;;4915754;29;20054;-71
2022/03/23 15:30:58;;;;;;;11.93;10.82;;;23.20;31.60;;;;;;4915541;29;20050;-71
2022/03/23 15:33:30;;;;;;;12.10;10.57;;;23.60;32.20;;;;;;4913301;29;20041;-72
2022/03/23 15:36:05;;;;;;;11.85;10.55;;;24.10;30.80;;;;;;4915695;29;20052;-68
2022/03/23 15:38:37;;;;;;;13.25;11.00;;;24.50;30.50;;;;;;4915532;29;20044;-68
2022/03/23 15:41:04;;;;;;;12.95;11.15;;;24.80;30.10;;;;;;4914823;29;20048;-68
2022/03/23 15:43:37;;;;;;;12.63;10.65;;;24.90;31.00;;;;;;4915559;29;20032;-69
2022/03/23 15:46:09;;;;;;;14.85;10.77;;;25.10;29.50;;;;;;4897427;29;20044;-69
2022/03/23 15:48:36;;;;;;;13.23;10.93;;;25.30;29.70;;;;;;4915728;29;20123;-70
2022/03/23 15:51:05;;;;;;;14.52;11.88;;;25.40;29.80;;;;;;4912277;29;20040;-69
2022/03/23 15:53:40;;;;;;;12.90;10.13;;;25.40;29.00;;;;;;4914866;29;20047;-69
2022/03/23 15:56:13;;;;;;;12.65;11.35;;;25.50;30.00;;;;;;4896181;29;20426;-69
2022/03/23 15:58:43;;;;;;;14.35;11.38;;;25.40;29.00;;;;;;4912002;29;20107;-69
2022/03/23 16:01:10;;;;;;;19.70;11.95;;;25.30;28.70;;;;;;4902545;29;20052;-69
2022/03/23 16:03:42;;;;;;;16.58;11.05;;;25.30;29.30;;;;;;4918226;29;20076;-69
2022/03/23 16:09:30;;;;;;;23.13;19.40;;;25.40;29.70;;;;;;4940509;23;20044;-70
2022/03/23 16:11:56;;;;;;;34.85;26.17;;;25.70;29.40;;;;;;4946482;29;20082;-68
2022/03/23 16:14:23;;;;;;;15.88;14.27;;;26.00;29.90;;;;;;4916503;29;20055;-71
2022/03/23 16:16:50;;;;;;;14.55;11.00;;;26.20;29.50;;;;;;4897446;29;20060;-69
2022/03/23 16:19:22;;;;;;;18.73;10.68;;;26.20;28.90;;;;;;4910601;29;20044;-69
2022/03/23 16:21:53;;;;;;;11.52;10.15;;;26.20;28.80;;;;;;4913741;29;20046;-68
2022/03/23 18:06:55;;;;;;;9.48;6.82;;;11.60;59.50;;;;;;4903015;29;20139;-71
2022/03/23 18:09:27;;;;;;;8.25;5.63;;;11.60;59.70;;;;;;4916640;29;20067;-71
2022/03/23 18:11:59;;;;;;;9.85;6.25;;;11.50;59.80;;;;;;4906474;29;20039;-71
2022/03/23 18:14:32;;;;;;;9.32;5.50;;;11.50;60.20;;;;;;4928710;29;20044;-72
2022/03/23 18:17:05;;;;;;;9.17;6.13;;;11.30;60.10;;;;;;4937731;29;20054;-71
2022/03/23 18:19:38;;;;;;;11.40;5.45;;;11.20;60.10;;;;;;4931413;29;20367;-71
2022/03/23 18:22:11;;;;;;;10.88;6.07;;;11.20;60.40;;;;;;4926191;29;20127;-71
2022/03/23 18:24:43;;;;;;;;;;;11.00;60.60;;;;;;4926867;29;20399;-71
2022/03/23 18:27:11;;;;;;;14.02;6.13;;;10.80;60.80;;;;;;4932288;29;19955;-71
2022/03/23 18:29:38;;;;;;;14.15;6.18;;;10.60;61.40;;;;;;4928979;29;20044;-71
2022/03/23 18:32:10;;;;;;;8.73;5.60;;;10.50;61.90;;;;;;4931840;29;20127;-71
2022/03/23 18:34:42;;;;;;;9.23;5.90;;;10.30;62.40;;;;;;4906267;29;20388;-71
2022/03/23 18:37:14;;;;;;;7.47;5.28;;;10.30;62.80;;;;;;4930143;29;20035;-71
2022/03/23 18:39:45;;;;;;;16.33;6.18;;;10.10;63.30;;;;;;4931541;29;20059;-71
2022/03/23 18:42:17;;;;;;;8.25;5.43;;;10.00;64.00;;;;;;4931629;29;20127;-72
2022/03/23 18:44:49;;;;;;;15.40;7.00;;;9.90;64.70;;;;;;4903591;29;20048;-70
2022/03/23 18:47:21;;;;;;;9.45;5.00;;;9.80;65.30;;;;;;4918803;29;20075;-71
2022/03/23 18:49:53;;;;;;;8.40;5.72;;;9.70;65.60;;;;;;4922101;29;20551;-71
2022/03/23 18:52:25;;;;;;;8.40;6.20;;;9.60;66.10;;;;;;4922956;29;20047;-71
2022/03/23 18:54:56;;;;;;;8.77;5.63;;;9.50;67.20;;;;;;4913723;29;20044;-71
2022/03/23 18:57:28;;;;;;;9.73;5.75;;;9.40;67.50;;;;;;4929484;29;20069;-71
2022/03/23 19:00:00;;;;;;;8.38;5.47;;;9.30;67.60;;;;;;4917133;29;20079;-71
2022/03/23 19:02:33;;;;;;;7.10;5.47;;;9.30;67.80;;;;;;4922823;29;20042;-71
2022/03/23 19:05:00;;;;;;;6.78;4.80;;;9.30;67.90;;;;;;4920738;29;20051;-71
2022/03/23 19:07:33;;;;;;;6.57;5.07;;;9.20;68.20;;;;;;4923960;29;20044;-71
2022/03/23 19:10:06;;;;;;;8.73;5.07;;;9.10;68.40;;;;;;4911360;29;20118;-71
2022/03/23 19:12:38;;;;;;;8.10;5.60;;;9.10;69.30;;;;;;4920422;29;20033;-71
2022/03/23 19:15:10;;;;;;;6.63;4.88;;;9.00;69.40;;;;;;4921198;29;20507;-71
2022/03/23 19:17:42;;;;;;;8.27;6.22;;;8.90;69.30;;;;;;4917906;29;20032;-71
2022/03/23 19:20:14;;;;;;;9.00;5.43;;;8.80;69.40;;;;;;4899176;29;20046;-71
2022/03/23 19:22:40;;;;;;;11.10;6.82;;;8.70;69.80;;;;;;4899541;29;20040;-71
2022/03/23 19:25:12;;;;;;;10.15;5.78;;;8.70;70.70;;;;;;4920461;29;20108;-70
2022/03/23 19:27:47;;;;;;;8.38;6.05;;;8.60;71.10;;;;;;4918430;29;20087;-71
2022/03/23 19:30:19;;;;;;;9.60;5.45;;;8.60;71.60;;;;;;4917477;29;20046;-71
2022/03/23 19:32:51;;;;;;;9.75;5.70;;;8.50;72.50;;;;;;4926675;29;20063;-71
2022/03/23 19:35:24;;;;;;;9.90;6.85;;;8.40;72.90;;;;;;4930408;29;20123;-71
2022/03/23 19:37:56;;;;;;;10.10;6.82;;;8.40;73.40;;;;;;4923230;29;20044;-72
2022/03/23 19:40:28;;;;;;;10.23;6.90;;;8.30;75.00;;;;;;4921093;29;20054;-71
2022/03/23 19:43:00;;;;;;;7.85;6.45;;;8.20;75.20;;;;;;4931270;29;20075;-71
2022/03/23 19:45:31;;;;;;;9.85;6.82;;;8.20;75.70;;;;;;4923591;29;20070;-71
2022/03/23 19:48:05;;;;;;;9.50;6.35;;;8.00;76.90;;;;;;4928575;29;20048;-72
2022/03/23 19:50:37;;;;;;;9.30;6.35;;;7.90;77.80;;;;;;4906583;29;20555;-71
2022/03/23 19:53:08;;;;;;;10.05;7.00;;;7.80;78.70;;;;;;4932130;29;20155;-70
2022/03/23 19:55:40;;;;;;;9.88;7.38;;;7.80;79.30;;;;;;4933293;29;20072;-71
2022/03/23 19:58:07;;;;;;;9.65;6.53;;;7.70;80.00;;;;;;4934281;29;20054;-71
2022/03/23 20:00:39;;;;;;;11.60;7.70;;;7.80;80.20;;;;;;4903753;29;20064;-71
2022/03/23 20:03:11;;;;;;;12.40;7.35;;;7.80;80.20;;;;;;4933813;29;20071;-71
2022/03/23 20:05:43;;;;;;;14.52;7.32;;;7.80;80.10;;;;;;4926494;29;20042;-71
2022/03/23 20:08:15;;;;;;;16.58;8.80;;;7.70;80.10;;;;;;4934218;29;20075;-71
2022/03/23 20:10:47;;;;;;;12.70;7.75;;;7.70;81.70;;;;;;4912814;29;20071;-71
2022/03/23 20:13:19;;;;;;;15.90;7.22;;;7.60;82.30;;;;;;4901902;29;20047;-71
2022/03/23 20:15:51;;;;;;;13.77;7.68;;;7.60;83.80;;;;;;4901455;29;20052;-72
2022/03/23 20:18:23;;;;;;;12.70;7.97;;;7.50;84.60;;;;;;4916386;29;20043;-72
2022/03/23 20:20:55;;;;;;;10.80;7.47;;;7.50;85.20;;;;;;4908978;29;20040;-71
2022/03/23 20:23:27;;;;;;;10.73;7.57;;;7.40;86.10;;;;;;4912631;29;20067;-72
2022/03/23 20:26:00;;;;;;;10.63;8.35;;;7.40;87.20;;;;;;4927352;29;20092;-71
2022/03/23 20:28:33;;;;;;;11.35;7.03;;;7.30;88.20;;;;;;4924766;29;20043;-71
2022/03/23 20:31:05;;;;;;;10.32;7.53;;;7.20;89.20;;;;;;4922918;29;20946;-71
2022/03/23 20:33:32;;;;;;;10.57;7.80;;;7.10;90.20;;;;;;4921328;29;20044;-71
2022/03/23 20:36:04;;;;;;;13.07;7.97;;;7.00;90.40;;;;;;4923395;29;20040;-71
2022/03/23 20:38:36;;;;;;;10.45;6.90;;;6.90;91.00;;;;;;4923010;29;20040;-71
2022/03/23 20:41:09;;;;;;;13.55;8.02;;;6.90;91.10;;;;;;4926311;29;20062;-71
2022/03/23 20:43:42;;;;;;;13.38;7.47;;;6.80;91.50;;;;;;4919767;29;20844;-72
2022/03/23 20:46:14;;;;;;;12.95;7.38;;;6.80;92.00;;;;;;4912501;29;20114;-71
2022/03/23 20:48:47;;;;;;;10.15;6.60;;;6.70;92.30;;;;;;4908020;29;20044;-72
2022/03/23 20:51:19;;;;;;;10.65;7.03;;;6.70;92.60;;;;;;4929623;29;20056;-72
2022/03/23 20:53:50;;;;;;;10.25;7.30;;;6.70;93.20;;;;;;4922537;29;20080;-72
2022/03/23 20:56:17;;;;;;;10.32;7.07;;;6.50;93.60;;;;;;4912772;29;20055;-72
2022/03/23 20:58:50;;;;;;;11.30;7.30;;;6.40;94.30;;;;;;4928863;29;20050;-70
2022/03/23 21:01:22;;;;;;;12.32;7.93;;;6.40;94.90;;;;;;4919387;29;20047;-72
2022/03/23 21:03:54;;;;;;;10.07;7.47;;;6.30;95.50;;;;;;4928721;29;20054;-73
2022/03/23 21:06:31;;;;;;;11.20;8.30;;;6.20;96.60;;;;;;4913749;29;20048;-72
2022/03/23 21:09:05;;;;;;;10.90;7.57;;;6.10;97.60;;;;;;4924380;29;20060;-71
2022/03/23 21:11:37;;;;;;;12.32;7.85;;;6.00;98.30;;;;;;4906780;29;20032;-71
2022/03/23 21:14:09;;;;;;;10.55;7.85;;;6.00;98.90;;;;;;4929253;29;20772;-71
2022/03/23 21:16:41;;;;;;;12.40;8.18;;;5.90;99.70;;;;;;4929484;29;20039;-72
2022/03/23 21:19:14;;;;;;;10.98;7.90;;;5.90;99.60;;;;;;4927494;29;20036;-72
2022/03/23 21:21:50;;;;;;;13.20;7.85;;;5.90;99.80;;;;;;4912257;29;20136;-73
2022/03/23 21:24:22;;;;;;;9.73;6.80;;;5.90;99.90;;;;;;4893251;29;20043;-71
2022/03/23 21:26:53;;;;;;;12.07;7.45;;;5.90;99.90;;;;;;4901336;29;20039;-72
2022/03/23 21:29:25;;;;;;;12.68;8.80;;;5.90;99.90;;;;;;4922778;29;20044;-72
2022/03/23 21:31:57;;;;;;;12.45;7.70;;;5.90;99.90;;;;;;4906167;29;20037;-72
2022/03/23 21:34:29;;;;;;;13.05;8.20;;;5.90;99.90;;;;;;4897405;29;20050;-71
2022/03/23 21:37:00;;;;;;;13.05;8.18;;;5.80;99.90;;;;;;4918074;29;20051;-72
2022/03/23 21:39:32;;;;;;;14.75;9.18;;;5.80;99.90;;;;;;4927786;29;20044;-72
2022/03/23 21:42:04;;;;;;;11.27;7.40;;;5.80;99.90;;;;;;4927429;29;20400;-71
2022/03/23 21:44:36;;;;;;;12.52;8.18;;;5.70;99.90;;;;;;4910559;29;20078;-72
2022/03/23 21:47:08;;;;;;;14.48;8.95;;;5.60;99.90;;;;;;4912942;29;20123;-72
2022/03/23 21:49:39;;;;;;;11.20;8.07;;;5.50;99.90;;;;;;4898226;29;20044;-72
2022/03/23 21:52:11;;;;;;;13.43;7.63;;;5.50;99.90;;;;;;4913127;29;20044;-72
2022/03/23 21:54:44;;;;;;;13.52;9.52;;;5.50;99.90;;;;;;4897213;29;20542;-72
2022/03/23 21:57:16;;;;;;;13.90;8.00;;;5.40;99.90;;;;;;4897439;29;20558;-72
2022/03/23 21:59:47;;;;;;;17.67;9.57;;;5.30;99.90;;;;;;4898711;29;20148;-72
2022/03/23 22:02:19;;;;;;;14.18;9.20;;;5.30;99.90;;;;;;4898082;29;20049;-72
2022/03/23 22:04:51;;;;;;;15.15;8.50;;;5.30;99.90;;;;;;4880843;29;20052;-71
2022/03/23 22:07:23;;;;;;;13.32;9.10;;;5.30;99.90;;;;;;4882365;29;20104;-72
2022/03/23 22:09:55;;;;;;;14.68;8.45;;;5.30;99.90;;;;;;4897108;29;20048;-73
2022/03/23 22:12:28;;;;;;;11.27;8.50;;;5.30;99.90;;;;;;4882381;29;20044;-72
2022/03/23 22:14:55;;;;;;;15.55;8.85;;;5.30;99.90;;;;;;4896707;29;20048;-72
2022/03/23 22:17:26;;;;;;;13.02;8.70;;;5.30;99.90;;;;;;4896426;29;20044;-72
2022/03/23 22:19:58;;;;;;;16.30;8.85;;;5.30;99.90;;;;;;4898101;29;20064;-72
2022/03/23 22:22:30;;;;;;;16.25;9.68;;;5.20;99.90;;;;;;4896838;29;20056;-72
2022/03/23 22:25:03;;;;;;;13.73;9.80;;;5.20;99.90;;;;;;4897707;29;20472;-72
2022/03/23 22:27:34;;;;;;;15.13;8.97;;;5.10;99.90;;;;;;4897516;29;20059;-72
2022/03/23 22:30:10;;;;;;;15.73;10.85;;;5.10;99.90;;;;;;4896646;29;20056;-72
2022/03/23 22:32:42;;;;;;;14.43;9.77;;;5.00;99.90;;;;;;4896773;29;20044;-72
2022/03/23 22:35:15;;;;;;;13.55;9.40;;;4.80;99.90;;;;;;4897569;29;20492;-72
2022/03/23 22:37:47;;;;;;;13.02;9.45;;;4.70;99.90;;;;;;4896148;29;20721;-72
2022/03/23 22:40:18;;;;;;;14.63;9.25;;;4.50;99.90;;;;;;4897777;29;20120;-71
2022/03/23 22:42:50;;;;;;;17.40;9.35;;;4.40;99.90;;;;;;4896634;29;20080;-72
2022/03/23 22:45:22;;;;;;;19.75;10.65;;;4.40;99.90;;;;;;4896171;29;20044;-71
2022/03/23 22:47:49;;;;;;;15.27;9.95;;;4.40;99.90;;;;;;4896007;29;20056;-71
2022/03/23 22:50:22;;;;;;;15.90;9.93;;;4.40;99.90;;;;;;4881401;29;20049;-72
2022/03/23 22:52:53;;;;;;;16.73;10.43;;;4.30;99.90;;;;;;4896368;29;20059;-71
2022/03/23 22:55:25;;;;;;;15.63;10.05;;;4.30;99.90;;;;;;4881141;29;20356;-71
2022/03/23 22:57:57;;;;;;;14.65;10.07;;;4.20;99.90;;;;;;4897011;29;20041;-71
2022/03/23 23:00:29;;;;;;;16.45;9.77;;;4.20;99.90;;;;;;4897310;29;20040;-72
2022/03/23 23:03:01;;;;;;;13.90;9.55;;;4.20;99.90;;;;;;4896420;29;20119;-72
2022/03/23 23:05:33;;;;;;;15.18;9.60;;;4.10;99.90;;;;;;4894658;29;20083;-71
2022/03/23 23:08:04;;;;;;;16.98;10.30;;;4.10;99.90;;;;;;4880624;29;20044;-72
2022/03/23 23:10:36;;;;;;;16.33;10.65;;;4.00;99.90;;;;;;4895916;29;20058;-72
2022/03/23 23:13:08;;;;;;;15.40;9.57;;;4.00;99.90;;;;;;4896213;29;20049;-72
2022/03/23 23:15:40;;;;;;;16.65;9.30;;;4.00;99.90;;;;;;4880731;29;20053;-72
2022/03/23 23:18:12;;;;;;;15.43;9.32;;;4.10;99.90;;;;;;4896740;29;20056;-72
2022/03/23 23:20:43;;;;;;;15.13;9.80;;;4.10;99.90;;;;;;4895666;29;20550;-72
2022/03/23 23:23:16;;;;;;;15.88;10.55;;;4.10;99.90;;;;;;4896018;29;20083;-72
2022/03/23 23:25:48;;;;;;;17.52;10.23;;;4.10;99.90;;;;;;4902783;29;20079;-72
2022/03/23 23:28:34;;;;;;;18.05;11.27;;;4.00;99.90;;;;;;4911689;29;20068;-72
2022/03/23 23:31:09;;;;;;;16.02;9.88;;;4.10;99.90;;;;;;4899609;29;20078;-72
2022/03/23 23:33:44;;;;;;;15.85;9.77;;;4.10;99.90;;;;;;4915089;29;20064;-72
2022/03/23 23:36:16;;;;;;;16.38;10.45;;;4.10;99.90;;;;;;4912579;29;20066;-75
2022/03/23 23:38:48;;;;;;;17.47;11.13;;;4.10;99.90;;;;;;4898505;29;20052;-72
2022/03/23 23:41:20;;;;;;;14.93;11.13;;;4.00;99.90;;;;;;4912733;29;20131;-72
2022/03/23 23:43:47;;;;;;;17.33;12.40;;;4.00;99.90;;;;;;4912308;29;20048;-72
2022/03/23 23:46:19;;;;;;;17.70;12.00;;;3.90;99.90;;;;;;4912738;29;20048;-72
2022/03/23 23:48:51;;;;;;;17.02;10.52;;;3.90;99.90;;;;;;4912337;29;20510;-72
2022/03/23 23:51:23;;;;;;;16.75;11.77;;;3.80;99.90;;;;;;4912375;29;20402;-72
2022/03/23 23:53:58;;;;;;;16.95;13.07;;;3.80;99.90;;;;;;4912708;29;20067;-72
2022/03/23 23:56:29;;;;;;;16.38;12.40;;;3.70;99.90;;;;;;4914741;29;20064;-71
2022/03/23 23:59:01;;;;;;;14.48;10.88;;;3.70;99.90;;;;;;4900078;29;20040;-72
